Latest Weather Observations for Parawa West

IDS60801

Issued at 11:35 am CDT Tuesday 25 November 2014 (issued every 30 minutes, with the page automatically refreshed every 10 minutes)

About weather observations | Map of weather stations | Latest weather observations for SA | Other Formats
Station Details ID: 023875 Name: SECOND VALLEY FOREST AWS Lat: -35.57 Lon: 138.29 Height: 341.0 m
Data from the previous 72 hours. | See also: Recent months at Parawa West
Date/Time
CDT
Temp
°C
App
Temp
°C
Dew
Point
Rel
Hum
%
Delta-T
°C
Wind Press
QNH
hPa
Press
MSL
hPa
Rain
since 9 am
mm
Dir
 
Spd
km/h
Gust
km/h
Spd
kts
Gust
kts
25/11:30am 15.4 12.0 4.2 47 5.3 WNW 11 22 6 12 1023.0 1022.6 0.0
25/11:00am 14.2 10.5 4.5 52 4.5 W 13 20 7 11 1023.1 1022.7 0.0
25/10:30am 15.1 11.8 4.5 49 5.0 W 11 19 6 10 1023.0 1022.6 0.0
25/10:00am 13.5 9.6 5.4 58 3.9 W 15 20 8 11 1023.1 1022.7 0.0
25/09:30am 13.4 10.1 6.5 63 3.4 WSW 13 22 7 12 1023.1 1022.7 0.0
25/09:00am 12.5 10.5 8.8 78 1.9 WSW 9 15 5 8 1022.9 1022.5 0.0
25/08:30am 11.6 10.4 9.5 87 1.1 W 6 9 3 5 1022.5 1022.0 0.0
25/08:00am 11.2 9.1 8.2 82 1.5 WSW 9 13 5 7 1022.2 1021.7 0.0
25/07:30am 11.6 9.1 8.3 80 1.6 W 11 15 6 8 1022.0 1021.5 0.0
25/07:00am 10.8 8.9 7.5 80 1.6 WSW 7 9 4 5 1021.5 1021.0 0.0
25/06:30am 9.8 8.0 7.1 83 1.3 SW 6 7 3 4 1021.1 1020.6 0.0
25/06:00am 9.8 7.8 7.1 83 1.3 SW 7 11 4 6 1020.7 1020.2 0.0
25/05:30am 9.6 7.6 7.0 84 1.2 SW 7 13 4 7 1020.4 1019.9 0.0
25/05:00am 9.8 7.5 7.6 86 1.1 SW 9 13 5 7 1019.9 1019.4 0.0
25/04:30am 10.2 8.6 8.0 86 1.1 WSW 6 7 3 4 1019.8 1019.3 0.0
25/04:00am 10.4 8.7 8.5 88 0.9 WSW 7 11 4 6 1019.7 1019.2 0.0
25/03:30am 10.1 9.0 8.4 89 0.8 SW 4 7 2 4 1019.5 1019.0 0.0
25/03:00am 9.8 8.2 7.9 88 0.9 SW 6 9 3 5 1019.4 1018.9 0.0
25/02:30am 10.1 7.9 8.0 87 1.0 SW 9 11 5 6 1019.3 1018.8 0.0
25/02:00am 10.2 8.6 7.8 85 1.2 WSW 6 9 3 5 1019.4 1018.9 0.0
25/01:30am 10.4 8.5 7.6 83 1.4 WSW 7 11 4 6 1019.5 1019.0 0.0
25/01:00am 10.3 8.4 7.4 82 1.4 SW 7 13 4 7 1019.6 1019.1 0.0
25/12:30am 10.6 8.2 7.1 79 1.7 WSW 9 17 5 9 1019.7 1019.2 0.0
25/12:00am 11.1 8.0 7.4 78 1.8 SW 13 24 7 13 1019.6 1019.1 0.0
 
Date/Time
CDT
Temp
°C
App
Temp
°C
Dew
Point
Rel
Hum
%
Delta-T
°C
Wind Press
QNH
hPa
Press
MSL
hPa
Rain
since 9 am
mm
Dir
 
Spd
km/h
Gust
km/h
Spd
kts
Gust
kts
24/11:30pm 11.0 8.3 7.3 78 1.8 WSW 11 19 6 10 1019.5 1019.0 0.0
24/11:00pm 11.0 8.3 7.5 79 1.7 SW 11 19 6 10 1019.5 1019.0 0.0
24/10:30pm 11.1 8.3 7.0 76 2.0 SW 11 17 6 9 1019.4 1018.9 0.0
24/10:00pm 11.3 8.5 7.0 75 2.1 SW 11 20 6 11 1019.3 1018.8 0.0
24/09:30pm 11.4 8.2 6.9 74 2.2 SW 13 22 7 12 1019.0 1018.5 0.0
24/09:00pm 11.6 7.9 6.5 71 2.5 SW 15 24 8 13 1018.5 1018.0 0.0
24/08:30pm 11.8 7.7 6.3 69 2.6 SSW 17 24 9 13 1018.1 1017.6 0.0
24/08:00pm 12.1 8.2 7.0 71 2.5 SSW 17 28 9 15 1017.9 1017.4 0.0
24/07:30pm 13.0 9.5 7.0 67 2.9 SSW 15 26 8 14 1017.5 1016.9 0.0
24/07:00pm 13.5 8.2 6.8 64 3.3 SSW 24 37 13 20 1016.9 1016.4 0.0
24/06:30pm 14.0 9.2 7.3 64 3.3 SW 22 35 12 19 1016.4 1015.9 0.0
24/06:00pm 14.9 10.0 7.0 59 3.9 SW 22 35 12 19 1016.2 1015.7 0.0
24/05:30pm 15.1 9.9 7.2 59 4.0 SW 24 43 13 23 1015.9 1015.4 0.0
24/05:00pm 15.9 10.7 7.1 56 4.4 SSW 24 35 13 19 1015.7 1015.2 0.0
24/04:30pm 15.4 10.7 7.7 60 3.9 SSW 22 41 12 22 1015.4 1014.9 0.0
24/04:00pm 16.8 12.2 8.0 56 4.5 SSW 22 35 12 19 1015.2 1014.7 0.0
24/03:30pm 17.4 13.5 7.2 51 5.2 WSW 17 24 9 13 1015.0 1014.4 0.0
24/03:00pm 16.7 12.1 6.5 51 5.1 SW 20 30 11 16 1014.8 1014.2 0.0
24/02:30pm 16.0 11.8 8.2 60 4.0 SW 20 33 11 18 1014.9 1014.3 0.0
24/02:00pm 15.3 9.7 8.8 65 3.4 SSW 28 41 15 22 1014.8 1014.2 0.0
24/01:30pm 16.2 11.8 8.9 62 3.8 SW 22 35 12 19 1014.6 1014.0 0.0
24/01:00pm 15.7 12.7 9.1 65 3.5 SW 15 24 8 13 1014.4 1013.8 0.0
24/12:30pm 13.0 9.4 10.7 86 1.2 SW 20 33 11 18 1014.7 1014.1 0.0
24/12:00pm 15.4 12.3 10.4 72 2.7 WSW 17 24 9 13 1014.4 1013.8 0.0
24/11:30am 15.5 11.9 9.8 69 3.0 SW 19 30 10 16 1014.2 1013.6 0.0
24/11:00am 15.4 12.5 11.0 75 2.4 SW 17 33 9 18 1013.8 1013.3 0.0
24/10:30am 13.7 11.3 12.6 93 0.6 SW 17 28 9 15 1013.6 1013.1 0.0
24/10:00am 15.8 14.1 12.4 80 1.9 SW 13 20 7 11 1013.2 1012.7 0.0
24/09:30am 15.6 12.7 12.4 81 1.8 S 19 26 10 14 1012.9 1012.4 0.0
24/09:00am 16.1 13.4 12.8 81 1.9 S 19 24 10 13 1012.4 1011.8 3.4
24/08:30am 15.3 12.4 12.4 83 1.6 S 19 28 10 15 1012.2 1011.6 3.4
24/08:00am 14.8 12.6 13.3 91 0.8 S 17 22 9 12 1011.8 1011.2 3.4
24/07:30am 13.7 11.9 13.2 97 0.3 SSE 15 19 8 10 1011.2 1010.6 3.4
24/07:00am 13.0 10.9 12.5 97 0.3 S 15 19 8 10 1011.2 1010.6 3.4
24/06:30am 12.8 10.2 12.0 95 0.4 S 17 22 9 12 1010.5 1010.0 3.4
24/06:00am 12.6 9.4 11.3 92 0.7 SSE 19 30 10 16 1009.9 1009.3 2.8
24/05:30am 12.8 9.2 12.0 95 0.4 SSE 22 30 12 16 1009.1 1008.5 2.8
24/05:00am 13.0 8.7 12.2 95 0.4 S 26 33 14 18 1009.5 1008.9 2.6
24/04:30am 13.0 8.7 11.9 93 0.6 S 26 35 14 19 1009.1 1008.5 2.0
24/04:00am 12.9 8.5 11.6 92 0.7 SSE 26 33 14 18 1008.7 1008.1 1.6
24/03:30am 13.1 10.1 11.8 92 0.7 SSE 19 28 10 15 1009.2 1008.6 1.4
24/03:00am 13.9 11.1 13.3 96 0.3 SSE 20 26 11 14 1008.7 1008.1 0.0
24/02:30am 13.8 11.0 12.7 93 0.6 SSE 19 22 10 12 1009.2 1008.6 0.0
24/02:00am 14.0 11.5 12.2 89 1.0 SSE 17 24 9 13 1008.8 1008.2 0.0
24/01:30am 14.2 11.4 11.5 84 1.5 SSE 17 20 9 11 1009.1 1008.5 0.0
24/01:00am 14.2 11.6 11.9 86 1.3 SE 17 22 9 12 1009.5 1008.9 0.0
24/12:30am 14.0 10.9 11.7 86 1.3 SE 19 24 10 13 1009.7 1009.1 0.0
24/12:00am 14.1 11.1 12.5 90 0.9 SE 20 26 11 14 1010.0 1009.4 0.0
 
Date/Time
CDT
Temp
°C
App
Temp
°C
Dew
Point
Rel
Hum
%
Delta-T
°C
Wind Press
QNH
hPa
Press
MSL
hPa
Rain
since 9 am
mm
Dir
 
Spd
km/h
Gust
km/h
Spd
kts
Gust
kts
23/11:30pm 14.2 11.3 12.9 92 0.7 SE 20 28 11 15 1010.3 1009.8 0.0
23/11:00pm 14.4 11.7 13.4 94 0.6 SE 20 28 11 15 1010.7 1010.2 0.0
23/10:30pm 14.7 12.4 14.2 97 0.3 SE 19 28 10 15 1010.9 1010.4 0.0
23/10:00pm 15.0 12.6 14.5 97 0.3 SSE 20 26 11 14 1011.3 1010.7 0.0
23/09:30pm 14.9 13.2 13.6 92 0.7 SE 15 17 8 9 1011.2 1010.6 0.0
23/09:00pm 15.4 12.9 12.3 82 1.7 SE 17 22 9 12 1011.1 1010.5 0.0
23/08:30pm 15.9 14.2 12.5 80 1.9 SSE 13 17 7 9 1011.1 1010.5 0.0
23/08:00pm 17.1 15.6 12.0 72 2.8 S 11 15 6 8 1010.7 1010.2 0.0
23/07:30pm 20.0 18.8 9.6 51 5.6 SE 6 9 3 5 1010.6 1010.1 0.0
23/07:00pm 21.4 19.8 11.7 54 5.5 SSE 11 15 6 8 1010.1 1009.5 0.0
23/06:30pm 23.2 21.2 6.1 33 8.9 WNW 6 7 3 4 1010.2 1009.7 0.0
23/06:00pm 23.1 21.2 5.1 31 9.1 N 4 6 2 3 1010.8 1010.3 0.0
23/05:30pm 23.2 20.8 4.2 29 9.5 NNW 6 13 3 7 1011.2 1010.6 0.0
23/05:00pm 22.0 19.6 4.1 31 8.9 NW 6 7 3 4 1011.3 1010.7 0.0
23/04:30pm 21.6 19.7 4.7 33 8.4 NW 4 6 2 3 1011.5 1010.9 0.0
23/04:00pm 21.4 18.8 6.1 37 7.8 NW 9 15 5 8 1012.3 1011.7 0.0
23/03:30pm 21.5 18.4 7.3 40 7.4 NW 13 26 7 14 1012.9 1012.4 0.0
23/03:00pm 22.4 18.3 7.8 39 7.8 NW 19 26 10 14 1012.5 1011.9 0.0
23/02:30pm 23.0 22.2 11.1 47 6.7 SSE 6 9 3 5 1012.2 1011.6 0.0
23/02:00pm 21.4 19.0 12.5 57 5.1 SSE 17 20 9 11 1012.0 1011.4 0.0
23/01:30pm 23.6 21.3 5.5 31 9.3 WSW 7 17 4 9 1012.7 1012.2 0.0
23/01:00pm 23.2 21.3 7.7 37 8.3 NW 7 15 4 8 1013.3 1012.8 0.0
23/12:30pm 21.3 18.8 6.4 38 7.7 NW 9 17 5 9 1013.6 1013.1 0.0
23/12:00pm 20.8 17.6 6.7 40 7.3 NW 13 20 7 11 1013.5 1013.0 0.0
23/11:30am 21.5 19.8 8.4 43 7.0 NW 7 13 4 7 1013.1 1012.6 0.0
23/11:00am 20.6 18.7 8.9 47 6.3 NW 9 15 5 8 1012.9 1012.4 0.0
23/10:30am 19.7 18.3 8.7 49 5.9 WNW 6 11 3 6 1012.9 1012.4 0.0
23/10:00am 20.0 19.1 9.3 50 5.8 N 4 9 2 5 1012.6 1012.0 0.0
23/09:30am 18.3 17.7 10.4 60 4.3 N 4 6 2 3 1012.6 1012.0 0.0
23/09:00am 16.6 16.7 11.5 72 2.8 NE 2 6 1 3 1012.9 1012.4 0.2
23/08:30am 15.5 15.5 12.4 82 1.7 NNE 4 7 2 4 1012.7 1012.2 0.2
23/08:00am 14.1 14.6 14.1 100 0.0 N 4 7 2 4 1012.8 1012.3 0.2
23/07:30am 12.8 13.3 12.8 100 0.0 N 2 4 1 2 1012.7 1012.2 0.2
23/07:00am 11.8 12.0 11.8 100 0.0 N 2 6 1 3 1012.6 1012.0 0.2
23/06:30am 11.0 10.6 11.0 100 0.0 N 4 6 2 3 1012.7 1012.2 0.2
23/06:00am 11.0 10.6 11.0 100 0.0 S 4 6 2 3 1012.5 1011.9 0.2
23/05:30am 10.9 10.8 10.9 100 0.0 S 2 4 1 2 1012.2 1011.6 0.2
23/05:00am 10.8 11.1 10.8 100 0.0 CALM 0 0 0 0 1012.1 1011.5 0.2
23/04:30am 10.7 10.2 10.7 100 0.0 S 4 6 2 3 1011.9 1011.3 0.2
23/04:00am 11.0 10.2 11.0 100 0.0 S 6 7 3 4 1011.9 1011.3 0.2
23/03:30am 11.5 12.0 11.5 100 0.0 CALM 0 0 0 0 1012.0 1011.4 0.2
23/03:00am 11.7 11.9 11.7 100 0.0 S 2 2 1 1 1011.9 1011.3 0.0
23/02:30am 11.7 11.9 11.7 100 0.0 S 2 4 1 2 1011.9 1011.3 0.0
23/02:00am 11.3 11.0 11.3 100 0.0 S 4 6 2 3 1012.1 1011.5 0.0
23/01:30am 10.9 9.9 10.9 100 0.0 S 7 9 4 5 1012.3 1011.7 0.0
23/01:00am 11.4 9.7 11.2 99 0.1 S 11 13 6 7 1012.4 1011.8 0.0
23/12:30am 11.5 10.2 11.3 99 0.1 S 9 13 5 7 1012.7 1012.2 0.0
23/12:00am 11.5 10.2 11.2 98 0.2 S 9 13 5 7 1012.7 1012.2 0.0
 
Date/Time
CDT
Temp
°C
App
Temp
°C
Dew
Point
Rel
Hum
%
Delta-T
°C
Wind Press
QNH
hPa
Press
MSL
hPa
Rain
since 9 am
mm
Dir
 
Spd
km/h
Gust
km/h
Spd
kts
Gust
kts
22/11:30pm 12.0 10.4 11.5 97 0.3 S 11 15 6 8 1012.7 1012.2 0.0
22/11:00pm 12.3 10.7 11.7 96 0.3 SSE 11 13 6 7 1012.9 1012.4 0.0
22/10:30pm 12.6 10.7 11.7 94 0.5 S 13 17 7 9 1012.9 1012.4 0.0
22/10:00pm 13.0 10.7 11.7 92 0.7 S 15 20 8 11 1012.6 1012.0 0.0
22/09:30pm 13.1 10.6 12.3 95 0.4 S 17 22 9 12 1012.2 1011.6 0.0
22/09:00pm 13.3 10.9 12.5 95 0.4 S 17 24 9 13 1011.8 1011.2 0.0
22/08:30pm 13.5 11.3 12.2 92 0.7 S 15 20 8 11 1011.4 1010.8 0.0
22/08:00pm 14.1 11.7 12.5 90 0.9 S 17 24 9 13 1010.8 1010.3 0.0
22/07:30pm 14.8 11.9 12.3 85 1.4 S 19 24 10 13 1010.5 1010.0 0.0
22/07:00pm 15.5 12.3 13.2 86 1.3 S 22 28 12 15 1010.0 1009.4 0.0
22/06:30pm 15.9 12.7 13.2 84 1.5 S 22 28 12 15 1009.6 1009.0 0.0
22/06:00pm 15.9 13.0 14.1 89 1.0 S 22 30 12 16 1009.4 1008.8 0.0
22/05:30pm 16.9 13.8 14.5 86 1.4 S 24 30 13 16 1009.1 1008.5 0.0
22/05:00pm 18.4 16.1 14.7 79 2.2 S 20 26 11 14 1008.6 1008.0 0.0
22/04:30pm 22.5 20.5 12.7 54 5.7 W 15 22 8 12 1008.1 1007.5 0.0
22/04:00pm 22.6 19.3 12.8 54 5.7 W 22 33 12 18 1008.2 1007.6 0.0
22/03:30pm 22.5 20.3 13.3 56 5.4 W 17 30 9 16 1007.4 1006.8 0.0
22/03:00pm 20.5 18.6 15.1 71 3.2 NW 19 30 10 16 1007.9 1007.4 0.0
22/02:30pm 21.8 19.3 15.2 66 4.0 NNW 22 33 12 18 1007.8 1007.3 0.0
22/02:00pm 22.2 19.8 14.3 61 4.7 NW 20 33 11 18 1007.5 1006.9 0.0
22/01:30pm 21.8 20.1 14.7 64 4.3 NNW 17 32 9 17 1007.6 1007.1 0.0
22/01:00pm 23.5 21.6 14.2 56 5.6 NW 17 30 9 16 1007.4 1006.8 0.0
22/12:30pm 22.7 21.7 14.5 60 4.9 NW 13 26 7 14 1007.6 1007.1 0.0
22/12:00pm 21.8 20.0 15.4 67 3.9 NW 19 32 10 17 1007.6 1007.1 0.0

Other Formats:

Comma delimited format used in spreadsheet applications
http://www.bom.gov.au/fwo/IDS60801/IDS60801.94811.axf

JavaScript Object Notation format (JSON) in row-major order
http://www.bom.gov.au/fwo/IDS60801/IDS60801.94811.json